Time;durP1;ratioP1;P1;durP2;ratioP2;P2;SDS_P1;SDS_P2;PMS_P1;PMS_P2;Temp;Humidity;BMP_temperature;BMP_pressure;BME280_temperature;BME280_humidity;BME280_pressure;Samples;Min_cycle;Max_cycle;Signal;HPM_P1;HPM_P2
2023/01/02 00:02:18;;;;;;;18.48;11.25;;;;;;;7.91;100.00;99658.59;5075598;28;20226;-60
2023/01/02 00:04:44;;;;;;;22.45;11.85;;;;;;;7.35;100.00;99594.63;5075120;28;20628;-60
2023/01/02 00:07:09;;;;;;;17.10;11.45;;;;;;;7.39;100.00;99599.59;5075030;28;20266;-60
2023/01/02 00:09:34;;;;;;;19.60;11.55;;;;;;;7.77;100.00;99670.31;5075268;28;20308;-60
2023/01/02 00:12:00;;;;;;;15.40;10.80;;;;;;;7.53;100.00;99645.44;5075173;28;20184;-60
2023/01/02 00:14:25;;;;;;;17.80;11.65;;;;;;;7.59;100.00;99660.69;5074924;28;20192;-60
2023/01/02 00:16:51;;;;;;;13.63;9.65;;;;;;;7.46;100.00;99647.41;5074823;28;20181;-59
2023/01/02 00:19:16;;;;;;;9.18;6.40;;;;;;;7.51;100.00;99655.81;5075320;28;20200;-60
2023/01/02 00:21:42;;;;;;;4.38;2.95;;;;;;;7.52;100.00;99665.19;5075059;28;20639;-60
2023/01/02 00:24:07;;;;;;;2.70;2.30;;;;;;;7.31;100.00;99611.06;5075275;28;20210;-60
2023/01/02 00:26:33;;;;;;;2.20;2.03;;;;;;;7.56;100.00;99641.03;5075414;28;20642;-60
2023/01/02 00:29:00;;;;;;;2.55;2.35;;;;;;;7.80;100.00;99668.44;5074492;28;20279;-60
2023/01/02 00:31:25;;;;;;;2.45;2.05;;;;;;;7.74;100.00;99660.94;5074720;28;20320;-60
2023/01/02 00:33:50;;;;;;;2.95;1.90;;;;;;;7.78;100.00;99670.25;5074914;28;20184;-60
2023/01/02 00:36:16;;;;;;;2.35;2.10;;;;;;;7.82;100.00;99679.53;5074753;28;20264;-60
2023/01/02 00:38:41;;;;;;;3.35;2.88;;;;;;;7.52;100.00;99639.44;5074783;28;20173;-60
2023/01/02 00:41:06;;;;;;;4.43;3.55;;;;;;;7.68;100.00;99675.81;5074351;28;20181;-60
2023/01/02 00:43:32;;;;;;;7.45;4.90;;;;;;;7.30;100.00;99617.97;5074043;28;20189;-60
2023/01/02 00:45:58;;;;;;;5.90;4.90;;;;;;;7.27;100.00;99615.50;5074612;28;20234;-60
2023/01/02 00:48:23;;;;;;;5.95;5.38;;;;;;;7.58;100.00;99670.13;5074253;28;20201;-60
2023/01/02 00:50:49;;;;;;;7.40;5.35;;;;;;;7.57;100.00;99672.78;5074750;28;20181;-60
2023/01/02 00:53:15;;;;;;;6.00;5.40;;;;;;;7.35;100.00;99620.38;5073918;28;20670;-60
2023/01/02 00:55:42;;;;;;;6.20;5.15;;;;;;;7.70;100.00;99667.09;5074206;28;20220;-60
2023/01/02 00:58:08;;;;;;;8.85;5.30;;;;;;;7.62;100.00;99676.00;5074379;28;20177;-60
2023/01/02 01:00:33;;;;;;;5.80;4.63;;;;;;;7.33;100.00;99645.31;5074101;28;20260;-60
2023/01/02 01:02:59;;;;;;;5.75;5.22;;;;;;;7.54;100.00;99696.91;5074543;28;20234;-60
2023/01/02 01:05:26;;;;;;;7.20;5.80;;;;;;;7.31;100.00;99649.69;5073933;28;20201;-60
2023/01/02 01:07:54;;;;;;;6.07;5.47;;;;;;;7.40;100.00;99669.97;5074023;28;20675;-60
2023/01/02 01:10:20;;;;;;;6.43;5.30;;;;;;;7.25;100.00;99639.63;5074373;28;20616;-59
2023/01/02 01:12:46;;;;;;;10.32;5.55;;;;;;;7.52;100.00;99696.09;5073789;28;20189;-60
2023/01/02 01:15:11;;;;;;;9.02;6.07;;;;;;;7.19;100.00;99638.13;5073666;28;20663;-60
2023/01/02 01:17:39;;;;;;;10.00;6.20;;;;;;;7.37;100.00;99685.50;5073953;28;20234;-60
2023/01/02 01:20:05;;;;;;;7.72;5.65;;;;;;;7.01;100.00;99640.47;5073624;28;20601;-60
2023/01/02 01:22:31;;;;;;;8.00;5.88;;;;;;;7.21;100.00;99667.19;5073523;28;20204;-60
2023/01/02 01:24:56;;;;;;;6.82;5.90;;;;;;;6.98;100.00;99615.69;5073809;28;20252;-60
2023/01/02 01:27:21;;;;;;;8.23;6.43;;;;;;;7.11;100.00;99673.56;5073739;28;20550;-60
2023/01/02 01:29:47;;;;;;;5.75;5.15;;;;;;;7.16;100.00;99670.84;5074226;28;20169;-60
2023/01/02 01:32:12;;;;;;;8.23;5.78;;;;;;;6.67;100.00;99609.94;5050987;28;20225;-60
2023/01/02 01:34:38;;;;;;;11.15;5.90;;;;;;;6.45;100.00;99554.97;5051221;28;20189;-60
2023/01/02 01:37:03;;;;;;;6.68;5.70;;;;;;;6.80;100.00;99600.91;5051135;28;20727;-60
2023/01/02 01:39:28;;;;;;;8.23;5.88;;;;;;;7.13;100.00;99638.34;5051507;28;20194;-60
2023/01/02 01:41:54;;;;;;;9.13;6.50;;;;;;;6.90;100.00;99597.13;5050980;28;20203;-60
2023/01/02 01:44:42;;;;;;;5.45;4.95;;;;;;;7.21;100.00;99649.19;5051391;28;20181;-60
2023/01/02 01:47:24;;;;;;;8.02;5.40;;;;;;;6.98;100.00;99597.69;5051222;28;20611;-60
2023/01/02 01:49:55;;;;;;;5.95;5.15;;;;;;;7.27;100.00;99620.66;5050774;28;20538;-60
2023/01/02 01:52:26;;;;;;;4.38;3.97;;;;;;;7.13;100.00;99598.88;5051139;28;20192;-60
2023/01/02 01:55:35;;;;;;;3.75;3.38;;;;;;;7.21;100.00;99626.00;5050672;28;20169;-60
2023/01/02 01:58:07;;;;;;;8.05;3.92;;;;;;;6.64;100.00;99514.88;5050809;28;20675;-60
2023/01/02 02:00:33;;;;;;;5.78;4.10;;;;;;;7.11;100.00;99616.13;5050930;28;20166;-60
2023/01/02 02:03:03;;;;;;;2.58;2.30;;;;;;;6.98;100.00;99559.09;5059711;28;20268;-60
2023/01/02 02:05:30;;;;;;;2.20;2.00;;;;;;;7.39;100.00;99609.91;5073887;28;20192;-60
2023/01/02 02:08:36;;;;;;;1.80;1.70;;;;;;;7.60;100.00;99616.00;5071859;28;20204;-60
2023/01/02 02:11:02;;;;;;;1.60;1.50;;;;;;;7.70;100.00;99607.84;5072681;28;20181;-60
2023/01/02 02:13:30;;;;;;;2.00;1.90;;;;;;;7.76;100.00;99607.63;5072623;28;20234;-59
2023/01/02 02:16:08;;;;;;;1.42;1.42;;;;;;;7.72;100.00;99623.25;5072599;28;20235;-60
2023/01/02 02:18:33;;;;;;;1.63;1.52;;;;;;;7.89;99.09;99618.31;5073120;28;20172;-60
2023/01/02 02:21:26;;;;;;;2.10;2.00;;;;;;;7.85;99.94;99620.16;5072281;28;20566;-60
2023/01/02 02:24:10;;;;;;;2.55;2.10;;;;;;;7.90;100.00;99623.41;5073148;28;20173;-60
2023/01/02 02:26:58;;;;;;;2.42;2.08;;;;;;;7.69;99.39;99567.53;5072454;28;20180;-60
2023/01/02 02:29:38;;;;;;;1.95;1.85;;;;;;;8.03;98.15;99613.47;5073002;28;20193;-59
2023/01/02 02:32:28;;;;;;;2.90;2.15;;;;;;;7.99;98.25;99601.59;5072745;28;20195;-60
2023/01/02 02:35:05;;;;;;;2.35;2.15;;;;;;;8.03;98.28;99622.03;5090618;28;20229;-60
2023/01/02 02:38:06;;;;;;;1.85;1.70;;;;;;;8.09;97.68;99606.31;5090486;28;20192;-60
2023/01/02 02:40:48;;;;;;;1.83;1.73;;;;;;;7.80;97.52;99552.50;5090740;28;20623;-60
2023/01/02 02:43:47;;;;;;;3.00;2.70;;;;;;;7.96;100.00;99610.28;5090655;28;20574;-60
2023/01/02 02:46:28;;;;;;;5.65;3.78;;;;;;;7.83;100.00;99597.94;5090991;28;20172;-60
2023/01/02 02:49:14;;;;;;;4.97;3.13;;;;;;;7.91;100.00;99612.19;5090541;28;20219;-60
2023/01/02 02:51:47;;;;;;;4.88;3.80;;;;;;;7.94;100.00;99609.50;5090607;28;20179;-59
2023/01/02 02:54:49;;;;;;;4.53;4.05;;;;;;;7.96;100.00;99604.28;5090352;28;20651;-60
2023/01/02 02:57:15;;;;;;;6.72;4.65;;;;;;;7.54;100.00;99544.13;5050399;28;20193;-60
2023/01/02 02:59:41;;;;;;;5.05;4.40;;;;;;;7.86;100.00;99596.06;5049980;28;20185;-60
2023/01/02 03:02:06;;;;;;;6.55;5.20;;;;;;;7.52;100.00;99531.28;5049909;28;20252;-60
2023/01/02 03:04:32;;;;;;;4.15;3.53;;;;;;;7.88;100.00;99596.88;5050526;28;20177;-60
2023/01/02 03:07:00;;;;;;;2.97;2.60;;;;;;;7.92;100.00;99598.41;5049882;28;20194;-60
2023/01/02 03:09:38;;;;;;;2.92;2.42;;;;;;;7.69;100.00;99554.66;5049654;28;20263;-60
2023/01/02 03:12:22;;;;;;;2.67;2.47;;;;;;;7.97;100.00;99604.22;5049731;28;20185;-60
2023/01/02 03:15:01;;;;;;;5.05;3.40;;;;;;;7.95;100.00;99603.47;5050532;28;20185;-60
2023/01/02 03:17:46;;;;;;;6.32;4.68;;;;;;;7.96;100.00;99601.69;5049723;28;20201;-60
2023/01/02 03:20:16;;;;;;;5.93;5.13;;;;;;;7.61;100.00;99550.69;5052714;28;20256;-60
2023/01/02 03:22:49;;;;;;;6.18;5.57;;;;;;;7.72;100.00;99585.47;5053635;28;20194;-60
2023/01/02 03:25:15;;;;;;;6.28;5.18;;;;;;;7.35;100.00;99579.19;5054111;28;20166;-60
2023/01/02 03:27:44;;;;;;;6.50;4.78;;;;;;;7.01;100.00;99522.13;5058501;28;20251;-60
2023/01/02 03:30:17;;;;;;;7.90;5.75;;;;;;;7.02;100.00;99521.22;5075800;28;20708;-60
2023/01/02 03:32:57;;;;;;;6.40;5.80;;;;;;;6.96;100.00;99514.56;5076143;28;20236;-60
2023/01/02 03:35:34;;;;;;;5.20;4.70;;;;;;;7.03;100.00;99531.47;5076527;28;20646;-60
2023/01/02 03:38:03;;;;;;;3.75;3.38;;;;;;;7.49;100.00;99576.94;5075634;28;20805;-60
2023/01/02 03:40:36;;;;;;;3.05;2.75;;;;;;;7.51;100.00;99565.66;5075611;28;20728;-60
2023/01/02 03:43:22;;;;;;;3.05;2.15;;;;;;;7.22;100.00;99527.31;5075809;28;20181;-60
2023/01/02 03:45:55;;;;;;;1.80;1.70;;;;;;;7.28;99.53;99521.94;5075431;28;20631;-60
2023/01/02 03:48:34;;;;;;;2.40;1.88;;;;;;;7.60;99.64;99585.94;5075904;28;20284;-60
2023/01/02 03:51:02;;;;;;;3.78;3.10;;;;;;;7.31;100.00;99541.56;5075635;28;20650;-60
2023/01/02 03:53:30;;;;;;;2.58;2.38;;;;;;;7.42;100.00;99548.00;5075554;28;20177;-61
2023/01/02 03:56:08;;;;;;;3.08;2.63;;;;;;;7.74;100.00;99598.31;5075280;28;20181;-61
2023/01/02 03:58:46;;;;;;;3.10;2.80;;;;;;;7.65;100.00;99594.34;5074978;28;20185;-61
2023/01/02 04:01:20;;;;;;;2.22;2.05;;;;;;;7.68;100.00;99599.34;5075148;28;20230;-61
2023/01/02 04:03:56;;;;;;;4.13;2.80;;;;;;;7.77;100.00;99604.16;5075148;28;20176;-61
2023/01/02 04:06:36;;;;;;;2.63;2.42;;;;;;;7.73;100.00;99597.44;5075665;28;20169;-61
2023/01/02 04:09:17;;;;;;;3.20;2.30;;;;;;;7.85;100.00;99603.84;5075450;28;20188;-61
2023/01/02 04:11:49;;;;;;;2.83;2.63;;;;;;;7.50;100.00;99553.69;5075640;28;20184;-61
2023/01/02 04:14:31;;;;;;;3.95;2.80;;;;;;;7.24;100.00;99499.78;5074982;28;20635;-61
2023/01/02 04:16:59;;;;;;;2.75;2.55;;;;;;;7.76;100.00;99592.16;5075282;28;20169;-61
2023/01/02 04:19:40;;;;;;;7.55;3.25;;;;;;;7.65;100.00;99604.63;5074833;28;20302;-61
2023/01/02 04:22:11;;;;;;;3.42;3.13;;;;;;;7.62;100.00;99614.19;5075470;28;20160;-61
2023/01/02 04:24:42;;;;;;;4.85;3.42;;;;;;;7.31;100.00;99557.88;5074501;28;20593;-61
2023/01/02 04:27:21;;;;;;;4.75;3.83;;;;;;;7.63;100.00;99610.75;5074996;28;20169;-61
2023/01/02 04:29:46;;;;;;;6.18;5.05;;;;;;;7.00;100.00;99518.69;5075209;28;20189;-61
2023/01/02 04:32:25;;;;;;;5.32;4.57;;;;;;;7.14;100.00;99575.66;5074678;28;20196;-61
2023/01/02 04:34:52;;;;;;;6.30;4.85;;;;;;;7.13;100.00;99566.28;5075212;28;20173;-61
2023/01/02 04:37:26;;;;;;;7.55;5.88;;;;;;;7.03;100.00;99554.63;5074503;28;20697;-61
2023/01/02 04:39:55;;;;;;;8.55;6.10;;;;;;;6.79;100.00;99513.50;5074423;28;20189;-61
2023/01/02 04:42:20;;;;;;;5.78;5.22;;;;;;;7.38;100.00;99618.53;5074150;28;20169;-61
2023/01/02 04:44:46;;;;;;;7.40;6.60;;;;;;;6.64;100.00;99538.00;5074444;28;20189;-61
2023/01/02 04:47:11;;;;;;;8.13;7.13;;;;;;;7.01;100.00;99609.59;5074777;28;20181;-59
2023/01/02 04:49:36;;;;;;;8.77;7.10;;;;;;;6.64;100.00;99558.59;5074446;28;20201;-59
2023/01/02 04:52:02;;;;;;;10.85;7.82;;;;;;;6.63;100.00;99541.50;5074214;28;20173;-59
2023/01/02 04:54:27;;;;;;;11.52;8.02;;;;;;;7.01;100.00;99609.59;5074235;28;20181;-59
2023/01/02 04:56:53;;;;;;;11.40;7.85;;;;;;;6.75;100.00;99595.06;5074837;28;20169;-60
2023/01/02 04:59:18;;;;;;;11.45;7.72;;;;;;;6.77;100.00;99595.84;5074080;28;20204;-59
2023/01/02 05:01:44;;;;;;;10.68;7.93;;;;;;;6.85;100.00;99593.88;5073956;28;20234;-59
2023/01/02 05:04:09;;;;;;;11.48;8.23;;;;;;;6.80;100.00;99600.91;5074238;28;20654;-59
2023/01/02 05:06:34;;;;;;;12.90;8.93;;;;;;;6.53;100.00;99547.81;5074429;28;20176;-59
2023/01/02 05:09:00;;;;;;;10.45;8.23;;;;;;;6.55;100.00;99548.63;5073765;28;20663;-59
2023/01/02 05:11:25;;;;;;;10.30;8.38;;;;;;;6.74;100.00;99585.69;5073522;28;20187;-59
2023/01/02 05:13:50;;;;;;;10.88;7.88;;;;;;;6.64;100.00;99579.16;5073756;28;20280;-59
2023/01/02 05:16:16;;;;;;;10.98;8.27;;;;;;;6.57;100.00;99562.28;5074024;28;20234;-59
2023/01/02 05:18:41;;;;;;;9.00;7.03;;;;;;;6.51;100.00;99547.06;5073962;28;20174;-59
2023/01/02 05:23:55;;;;;;;9.50;7.38;;;;;;;6.83;100.00;99595.63;5073936;28;20541;-59
2023/01/02 05:26:21;;;;;;;11.13;7.72;;;;;;;6.57;100.00;99536.56;5073591;28;20176;-60
2023/01/02 05:28:46;;;;;;;11.00;7.90;;;;;;;6.53;100.00;99534.97;5073430;28;20753;-59
2023/01/02 05:31:11;;;;;;;11.45;8.15;;;;;;;6.34;100.00;99502.25;5073610;28;20181;-60
2023/01/02 05:33:37;;;;;;;12.68;8.25;;;;;;;6.42;100.00;99549.91;5073932;28;20177;-60
2023/01/02 05:36:05;;;;;;;12.10;8.00;;;;;;;6.42;100.00;99555.06;5073573;28;20550;-59
2023/01/02 05:38:31;;;;;;;10.85;7.63;;;;;;;6.41;100.00;99550.81;5073264;28;20181;-59
2023/01/02 05:41:05;;;;;;;9.70;7.82;;;;;;;6.39;100.00;99552.63;5070969;28;20188;-59
2023/01/02 05:43:32;;;;;;;10.38;7.40;;;;;;;6.35;100.00;99547.63;5071030;28;20188;-59
2023/01/02 05:45:58;;;;;;;13.60;7.57;;;;;;;6.76;100.00;99603.63;5070925;28;20242;-60
2023/01/02 05:48:23;;;;;;;10.80;7.97;;;;;;;6.24;100.00;99501.72;5071211;28;20204;-60
2023/01/02 05:50:49;;;;;;;10.65;7.68;;;;;;;6.48;100.00;99544.56;5070798;28;20193;-59
2023/01/02 05:53:16;;;;;;;9.90;7.35;;;;;;;6.27;100.00;99547.88;5070644;28;20268;-59
2023/01/02 05:55:41;;;;;;;7.70;6.63;;;;;;;6.66;100.00;99602.25;5070563;28;20280;-59
2023/01/02 05:58:06;;;;;;;11.30;7.43;;;;;;;6.36;100.00;99562.97;5070487;28;20644;-59
2023/01/02 06:00:32;;;;;;;11.80;7.57;;;;;;;6.53;100.00;99599.25;5070578;28;20185;-59
2023/01/02 06:02:57;;;;;;;9.82;7.75;;;;;;;6.61;100.00;99620.44;5071095;28;20615;-59
2023/01/02 06:05:22;;;;;;;10.88;7.70;;;;;;;6.58;100.00;99610.22;5070918;28;20177;-58
2023/01/02 06:07:48;;;;;;;13.80;7.80;;;;;;;6.29;100.00;99550.41;5070280;28;20686;-59
2023/01/02 06:10:13;;;;;;;10.73;8.23;;;;;;;6.52;100.00;99589.03;5070314;28;20177;-60
2023/01/02 06:12:39;;;;;;;10.05;7.45;;;;;;;6.41;100.00;99560.28;5072119;28;20189;-59
2023/01/02 06:15:04;;;;;;;12.20;8.82;;;;;;;6.58;100.00;99573.41;5050676;28;20631;-60
2023/01/02 06:17:30;;;;;;;12.27;9.30;;;;;;;6.20;100.00;99507.88;5050487;28;20196;-59
2023/01/02 06:19:55;;;;;;;16.63;11.68;;;;;;;6.68;100.00;99596.19;5050439;28;20696;-61
2023/01/02 06:22:20;;;;;;;17.10;11.45;;;;;;;6.58;100.00;99589.66;5050107;28;20243;-59
2023/01/02 06:24:46;;;;;;;14.38;10.20;;;;;;;6.58;100.00;99593.97;5050262;28;20628;-59
2023/01/02 06:27:11;;;;;;;13.90;9.25;;;;;;;6.71;100.00;99616.63;5050140;28;20182;-59
2023/01/02 06:29:37;;;;;;;14.55;9.27;;;;;;;6.64;100.00;99610.03;5050051;28;20221;-59
2023/01/02 06:32:02;;;;;;;13.55;9.25;;;;;;;6.76;100.00;99603.63;5049888;28;20716;-59
2023/01/02 06:34:27;;;;;;;13.82;8.85;;;;;;;6.61;100.00;99584.44;5050058;28;20193;-59
2023/01/02 06:36:54;;;;;;;12.27;8.60;;;;;;;6.88;100.00;99610.94;5050017;28;20658;-59
2023/01/02 06:39:20;;;;;;;11.88;8.30;;;;;;;6.75;100.00;99605.34;5049974;28;20185;-59
2023/01/02 06:41:45;;;;;;;14.00;10.20;;;;;;;6.84;100.00;99612.78;5050172;28;20212;-59
2023/01/02 06:44:13;;;;;;;15.75;10.57;;;;;;;6.49;100.00;99548.84;5049894;28;20269;-59
2023/01/02 06:46:39;;;;;;;22.48;14.15;;;;;;;6.84;100.00;99612.78;5066657;28;20199;-59
2023/01/02 06:49:04;;;;;;;30.00;18.67;;;;;;;6.82;100.00;99609.41;5072696;28;20201;-59
2023/01/02 06:51:29;;;;;;;30.98;19.65;;;;;;;6.41;100.00;99544.84;5072191;28;20199;-59
2023/01/02 06:53:55;;;;;;;38.63;22.38;;;;;;;6.94;100.00;99628.72;5074137;28;20232;-59
2023/01/02 06:56:21;;;;;;;33.97;22.65;;;;;;;6.86;100.00;99610.13;5078883;28;20276;-59
2023/01/02 06:58:47;;;;;;;36.08;21.65;;;;;;;7.05;100.00;99653.19;5079319;28;20184;-59
2023/01/02 07:01:19;;;;;;;38.58;22.00;;;;;;;6.88;100.00;99626.38;5078806;28;20184;-59
2023/01/02 07:03:45;;;;;;;33.22;19.98;;;;;;;6.74;100.00;99595.97;5078884;28;20177;-59
2023/01/02 07:06:16;;;;;;;74.40;42.38;;;;;;;7.14;100.00;99676.03;5078731;28;20188;-59
2023/01/02 07:08:42;;;;;;;67.65;37.40;;;;;;;6.97;100.00;99626.03;5078387;28;20626;-59
2023/01/02 07:11:09;;;;;;;66.18;37.38;;;;;;;7.28;100.00;99670.41;5078696;28;20184;-59
2023/01/02 07:13:35;;;;;;;72.50;36.38;;;;;;;6.80;100.00;99588.03;5078657;28;20172;-59
2023/01/02 07:16:03;;;;;;;49.03;29.30;;;;;;;7.14;100.00;99642.56;5078752;28;20260;-59
2023/01/02 07:18:28;;;;;;;47.30;27.45;;;;;;;7.52;100.00;99696.09;5078651;28;20698;-59
2023/01/02 07:20:54;;;;;;;44.85;27.08;;;;;;;7.22;100.00;99638.00;5078689;28;20219;-59
2023/01/02 07:23:19;;;;;;;39.33;26.55;;;;;;;7.38;100.00;99662.28;5078703;28;20200;-59
2023/01/02 07:25:51;;;;;;;45.92;28.67;;;;;;;7.22;100.00;99625.13;5079385;28;20231;-59
2023/01/02 07:28:16;;;;;;;42.67;26.27;;;;;;;7.37;100.00;99640.03;5079390;28;20245;-59
2023/01/02 07:30:42;;;;;;;38.03;26.35;;;;;;;7.65;100.00;99679.34;5078585;28;20702;-59
2023/01/02 07:33:07;;;;;;;43.20;26.17;;;;;;;7.47;100.00;99643.09;5079378;28;20242;-59
2023/01/02 07:35:32;;;;;;;38.13;22.08;;;;;;;7.73;100.00;99672.16;5078560;28;20647;-59
2023/01/02 07:37:58;;;;;;;29.05;18.40;;;;;;;7.85;100.00;99668.25;5078713;28;20230;-59
2023/01/02 07:40:24;;;;;;;31.42;18.73;;;;;;;7.68;100.00;99632.84;5078457;28;20204;-59
2023/01/02 07:42:50;;;;;;;32.95;19.45;;;;;;;7.86;100.00;99645.03;5077988;28;20184;-59
2023/01/02 07:45:15;;;;;;;25.70;17.10;;;;;;;7.81;100.00;99612.63;5078192;28;20728;-59
2023/01/02 07:47:40;;;;;;;23.80;16.83;;;;;;;8.12;100.00;99647.47;5078277;28;20265;-59
2023/01/02 07:50:06;;;;;;;27.25;16.20;;;;;;;8.01;100.00;99603.22;5078335;28;20176;-60
2023/01/02 07:52:31;;;;;;;25.13;18.35;;;;;;;8.41;100.00;99664.38;5079159;28;20276;-59
2023/01/02 07:54:57;;;;;;;28.13;19.00;;;;;;;8.19;100.00;99612.78;5078357;28;20173;-59
2023/01/02 07:57:22;;;;;;;28.95;19.15;;;;;;;8.33;100.00;99615.69;5078026;28;20169;-59
2023/01/02 07:59:49;;;;;;;25.45;17.92;;;;;;;8.72;100.00;99665.66;5078372;28;20172;-59
2023/01/02 08:02:14;;;;;;;24.92;18.23;;;;;;;8.81;100.00;99669.59;5078332;28;20177;-59
2023/01/02 08:04:39;;;;;;;29.55;19.10;;;;;;;8.30;100.00;99579.72;5078775;28;20503;-59
2023/01/02 08:07:05;;;;;;;28.73;19.48;;;;;;;8.54;100.00;99609.66;5073896;28;20195;-59
2023/01/02 08:09:30;;;;;;;30.50;21.30;;;;;;;8.95;100.00;99672.44;5075087;28;20200;-59
2023/01/02 08:11:55;;;;;;;24.40;17.10;;;;;;;8.66;100.00;99627.22;5075071;28;20708;-59
2023/01/02 08:14:21;;;;;;;24.30;17.77;;;;;;;8.75;100.00;99623.41;5074949;28;20189;-59
2023/01/02 08:16:46;;;;;;;21.08;16.42;;;;;;;8.89;100.00;99631.41;5075469;28;20230;-59
2023/01/02 08:19:11;;;;;;;20.95;14.70;;;;;;;9.10;100.00;99646.81;5075215;28;20185;-60
2023/01/02 08:21:37;;;;;;;22.08;12.52;;;;;;;8.96;99.80;99615.59;5074852;28;20172;-59
2023/01/02 08:24:02;;;;;;;17.83;11.93;;;;;;;9.01;98.67;99595.59;5074852;28;20180;-59
2023/01/02 08:26:28;;;;;;;11.38;7.80;;;;;;;9.46;92.87;99652.97;5075546;28;20266;-59
2023/01/02 08:28:53;;;;;;;11.27;5.30;;;;;;;9.25;90.12;99598.81;5074598;28;20575;-59
2023/01/02 08:31:20;;;;;;;6.20;3.40;;;;;;;9.67;88.69;99664.91;5074495;28;20264;-59
2023/01/02 08:33:45;;;;;;;4.97;3.03;;;;;;;9.78;84.61;99657.53;5074624;28;20193;-60
2023/01/02 08:36:13;;;;;;;4.45;2.30;;;;;;;9.63;84.40;99609.13;5074610;28;20191;-59
2023/01/02 08:38:38;;;;;;;3.95;2.88;;;;;;;10.02;83.12;99641.72;5074477;28;20177;-59
2023/01/02 08:41:04;;;;;;;2.90;2.50;;;;;;;10.13;81.49;99625.72;5074515;28;20192;-59
2023/01/02 08:43:32;;;;;;;2.85;2.45;;;;;;;10.27;81.64;99644.84;5074928;28;20173;-59
2023/01/02 08:46:04;;;;;;;3.17;2.50;;;;;;;9.98;82.20;99566.97;5074887;28;20177;-59
2023/01/02 08:48:30;;;;;;;3.53;3.22;;;;;;;10.30;80.10;99603.34;5074493;28;20193;-60
2023/01/02 08:50:55;;;;;;;4.28;3.40;;;;;;;10.31;80.45;99580.88;5074261;28;20611;-60
2023/01/02 08:53:20;;;;;;;9.55;7.30;;;;;;;10.45;81.23;99573.28;5074848;28;20208;-59
2023/01/02 08:55:46;;;;;;;13.48;9.23;;;;;;;10.57;82.27;99570.09;5074518;28;20188;-59
2023/01/02 08:58:11;;;;;;;11.60;8.77;;;;;;;10.60;82.93;99568.19;5074755;28;20586;-60
2023/01/02 09:00:37;;;;;;;12.82;9.00;;;;;;;11.04;82.84;99622.88;5074586;28;20230;-59
2023/01/02 09:03:02;;;;;;;24.02;13.23;;;;;;;10.81;83.00;99567.06;5074056;28;20177;-59
2023/01/02 09:05:29;;;;;;;23.00;14.82;;;;;;;10.86;83.44;99557.31;5074497;28;20177;-59
2023/01/02 09:07:58;;;;;;;28.88;18.85;;;;;;;10.93;84.06;99566.47;5073848;28;20616;-59
2023/01/02 09:10:23;;;;;;;28.77;18.27;;;;;;;11.03;83.91;99559.06;5073964;28;20176;-59
2023/01/02 09:12:49;;;;;;;23.70;15.15;;;;;;;11.09;83.95;99561.34;5073835;28;20585;-59
2023/01/02 09:15:14;;;;;;;22.48;14.30;;;;;;;11.41;83.78;99601.91;5073817;28;20239;-59
2023/01/02 09:17:40;;;;;;;19.88;13.23;;;;;;;11.14;84.41;99538.63;5074231;28;20177;-59
2023/01/02 09:20:05;;;;;;;20.17;14.05;;;;;;;11.37;84.71;99577.09;5073965;28;20189;-59
2023/01/02 09:22:31;;;;;;;23.38;16.73;;;;;;;11.50;85.54;99573.75;5073762;28;20544;-59
2023/01/02 09:24:56;;;;;;;25.38;16.98;;;;;;;11.39;85.60;99544.16;5073583;28;20565;-59
2023/01/02 09:27:21;;;;;;;24.15;15.63;;;;;;;11.76;86.45;99593.97;5074081;28;20267;-59
2023/01/02 09:29:47;;;;;;;26.88;16.65;;;;;;;11.82;86.34;99583.25;5051146;28;20755;-59
2023/01/02 09:32:12;;;;;;;24.92;17.15;;;;;;;11.57;87.05;99544.00;5051175;28;20280;-60
2023/01/02 09:34:37;;;;;;;22.88;14.23;;;;;;;11.58;86.61;99530.16;5051204;28;20189;-59
2023/01/02 09:37:03;;;;;;;22.27;15.85;;;;;;;11.42;86.42;99492.13;5051316;28;20274;-61
2023/01/02 09:39:28;;;;;;;21.60;15.02;;;;;;;11.71;86.25;99540.66;5051050;28;20182;-60
2023/01/02 09:41:57;;;;;;;21.63;14.55;;;;;;;11.64;86.61;99534.16;5051138;28;20277;-60
2023/01/02 09:44:26;;;;;;;23.75;14.27;;;;;;;11.95;87.18;99573.03;5051149;28;20676;-59
2023/01/02 09:46:55;;;;;;;24.40;15.60;;;;;;;11.96;87.36;99565.16;5050798;28;20592;-60
2023/01/02 09:49:24;;;;;;;20.45;13.15;;;;;;;11.75;87.21;99521.44;5050969;28;20247;-59
2023/01/02 09:51:50;;;;;;;22.05;13.73;;;;;;;11.58;86.00;99485.19;5051085;28;20184;-59
2023/01/02 09:54:29;;;;;;;22.58;14.52;;;;;;;11.78;86.67;99519.50;5050831;28;20190;-59
2023/01/02 09:57:21;;;;;;;24.15;13.32;;;;;;;12.15;86.71;99572.75;5051040;28;20196;-60
2023/01/02 09:59:58;;;;;;;18.98;13.40;;;;;;;12.24;86.20;99564.44;5068245;28;20311;-60
2023/01/02 10:02:23;;;;;;;18.90;12.75;;;;;;;12.28;86.31;99568.53;5071290;28;20192;-60
2023/01/02 10:05:05;;;;;;;19.42;11.88;;;;;;;12.29;86.54;99562.41;5070731;28;20185;-60
2023/01/02 10:07:33;;;;;;;15.52;12.40;;;;;;;12.31;85.88;99569.19;5070622;28;20677;-60
2023/01/02 10:10:16;;;;;;;22.08;14.93;;;;;;;12.18;85.67;99531.91;5070500;28;20255;-60
2023/01/02 10:12:51;;;;;;;23.15;14.98;;;;;;;12.39;85.28;99555.78;5070763;28;20716;-60
2023/01/02 10:15:24;;;;;;;19.90;13.65;;;;;;;12.09;84.97;99500.47;5070516;28;20192;-60
2023/01/02 10:17:57;;;;;;;23.08;14.40;;;;;;;12.38;84.98;99528.16;5071121;28;20235;-60
2023/01/02 10:20:38;;;;;;;20.63;14.80;;;;;;;12.17;84.00;99482.69;5071111;28;20228;-60
2023/01/02 10:23:16;;;;;;;21.17;14.45;;;;;;;12.23;84.58;99492.69;5070913;28;20211;-60
2023/01/02 10:25:57;;;;;;;19.33;14.15;;;;;;;12.25;84.56;99489.09;5070728;28;20663;-60
2023/01/02 10:28:47;;;;;;;18.45;13.55;;;;;;;12.59;84.19;99526.88;5070465;28;20197;-60
2023/01/02 10:32:01;;;;;;;21.40;14.43;;;;;;;12.62;84.44;99532.75;5071312;28;20201;-60
2023/01/02 10:34:38;;;;;;;19.20;12.30;;;;;;;12.61;84.42;99520.69;5070189;28;20290;-60
2023/01/02 10:37:11;;;;;;;17.48;12.32;;;;;;;12.53;84.11;99496.09;5070351;28;20181;-60
2023/01/02 10:39:37;;;;;;;16.77;11.38;;;;;;;12.29;84.04;99456.00;5070242;28;20762;-60
2023/01/02 10:42:05;;;;;;;17.33;11.55;;;;;;;12.39;84.50;99462.34;5070021;28;20263;-60
2023/01/02 10:44:36;;;;;;;53.58;27.65;;;;;;;12.39;84.13;99449.38;5070012;28;20211;-60
2023/01/02 10:47:12;;;;;;;39.05;22.05;;;;;;;12.81;83.43;99516.91;5069961;28;20748;-60
2023/01/02 10:49:40;;;;;;;35.60;22.25;;;;;;;12.88;83.19;99507.81;5070712;28;20618;-60
2023/01/02 10:52:14;;;;;;;25.10;17.27;;;;;;;12.64;82.71;99447.81;5070082;28;20199;-60
2023/01/02 10:54:54;;;;;;;18.88;13.27;;;;;;;13.06;82.29;99506.75;5070215;28;20168;-60
2023/01/02 10:57:34;;;;;;;17.92;12.07;;;;;;;13.11;81.91;99502.94;5070648;28;20246;-60
2023/01/02 11:00:03;;;;;;;15.93;12.85;;;;;;;13.18;82.09;99503.41;5070494;28;20589;-60
2023/01/02 11:02:28;;;;;;;17.17;12.43;;;;;;;13.24;81.59;99496.03;5070132;28;20189;-60
2023/01/02 11:04:59;;;;;;;15.77;11.02;;;;;;;13.22;81.32;99481.47;5070257;28;20185;-60
2023/01/02 11:07:25;;;;;;;15.20;11.32;;;;;;;13.24;81.19;99480.44;5070456;28;20192;-60
2023/01/02 11:09:55;;;;;;;16.85;11.13;;;;;;;13.03;80.93;99444.56;5069889;28;20582;-60
2023/01/02 11:12:22;;;;;;;17.52;11.68;;;;;;;13.29;81.81;99485.38;5072101;28;20617;-60
2023/01/02 11:14:47;;;;;;;16.27;11.20;;;;;;;13.25;81.22;99474.31;5072278;28;20184;-60
2023/01/02 11:17:21;;;;;;;14.20;10.85;;;;;;;13.16;81.51;99453.25;5072318;28;20593;-60
2023/01/02 11:19:53;;;;;;;16.15;11.38;;;;;;;13.28;82.14;99471.53;5072014;28;20200;-60
2023/01/02 11:22:22;;;;;;;16.00;11.30;;;;;;;13.11;81.89;99434.53;5072590;28;20169;-60
2023/01/02 11:24:51;;;;;;;15.63;11.82;;;;;;;13.13;81.52;99436.09;5071962;28;20219;-60
2023/01/02 11:27:17;;;;;;;16.65;12.77;;;;;;;13.38;81.66;99466.59;5071883;28;20189;-60
2023/01/02 11:29:46;;;;;;;17.42;13.20;;;;;;;13.40;80.79;99469.91;5071517;28;20197;-60
2023/01/02 11:32:23;;;;;;;16.83;11.80;;;;;;;13.13;80.78;99419.69;5072254;28;20220;-60
2023/01/02 11:34:59;;;;;;;17.63;12.98;;;;;;;13.29;79.94;99425.59;5071626;28;20556;-60
2023/01/02 11:37:25;;;;;;;16.95;11.43;;;;;;;13.42;80.12;99447.28;5071836;28;20189;-60
2023/01/02 11:39:56;;;;;;;15.82;11.80;;;;;;;13.18;80.35;99410.66;5072353;28;20177;-60
2023/01/02 11:45:19;;;;;;;12.30;10.88;;;;;;;13.20;81.21;99433.97;5075527;28;20278;-60